Time;durP1;ratioP1;P1;durP2;ratioP2;P2;SDS_P1;SDS_P2;PMS_P1;PMS_P2;Temp;Humidity;BMP_temperature;BMP_pressure;BME280_temperature;BME280_humidity;BME280_pressure;Samples;Min_cycle;Max_cycle;Signal;HPM_P1;HPM_P2
2021/07/18 07:56:22;;;;;;;8.00;5.30;;;18.70;95.40;;;;;;6172737;23;20238;-84
2021/07/18 07:58:49;;;;;;;8.07;4.28;;;18.70;95.50;;;;;;6110579;23;20191;-88
2021/07/18 08:01:16;;;;;;;8.35;4.30;;;18.70;95.70;;;;;;6104795;23;20231;-87
2021/07/18 08:03:53;;;;;;;7.05;4.30;;;18.80;96.30;;;;;;6108352;23;20290;-87
2021/07/18 08:06:22;;;;;;;7.78;4.40;;;19.00;95.90;;;;;;6107753;23;20188;-86
2021/07/18 08:15:34;;;;;;;5.95;4.30;;;19.10;94.60;;;;;;6097367;23;20259;-88
2021/07/18 08:18:08;;;;;;;8.45;4.57;;;19.10;95.30;;;;;;6095176;23;20184;-89
2021/07/18 08:20:35;;;;;;;10.15;4.82;;;19.10;95.20;;;;;;6100760;23;20250;-89
2021/07/18 08:23:31;;;;;;;6.53;4.90;;;19.30;95.20;;;;;;6098358;23;20283;-89
2021/07/18 08:25:58;;;;;;;8.32;4.60;;;19.40;94.70;;;;;;6098121;23;20612;-90
2021/07/18 08:28:25;;;;;;;6.55;4.82;;;19.60;94.50;;;;;;6098361;23;20280;-89
2021/07/18 08:30:54;;;;;;;8.45;4.45;;;19.70;94.50;;;;;;6099018;23;20189;-89
2021/07/18 08:33:21;;;;;;;6.53;5.07;;;19.80;94.20;;;;;;6098226;23;20634;-89
2021/07/18 08:35:48;;;;;;;8.48;4.78;;;19.80;94.00;;;;;;6099186;23;20219;-89
2021/07/18 08:38:15;;;;;;;10.02;5.18;;;19.80;93.70;;;;;;6093968;23;20244;-88
2021/07/18 08:40:42;;;;;;;6.93;5.00;;;20.00;94.00;;;;;;6094492;23;20191;-90
2021/07/18 08:43:09;;;;;;;6.95;4.93;;;20.20;93.40;;;;;;6094611;23;20177;-89
2021/07/18 08:45:36;;;;;;;12.57;5.38;;;20.40;92.70;;;;;;6094676;23;20897;-88
2021/07/18 08:48:11;;;;;;;8.93;5.45;;;20.40;92.70;;;;;;6093890;23;20251;-87
2021/07/18 08:50:38;;;;;;;9.10;5.20;;;20.30;92.70;;;;;;6095259;23;20260;-89
2021/07/18 08:53:05;;;;;;;8.57;5.97;;;20.40;92.70;;;;;;6093865;23;20726;-87
2021/07/18 08:55:32;;;;;;;9.95;5.93;;;20.40;92.30;;;;;;6093842;23;20276;-89
2021/07/18 08:57:59;;;;;;;7.88;6.20;;;20.50;91.90;;;;;;6094186;23;20263;-88
2021/07/18 09:00:27;;;;;;;9.30;5.53;;;20.50;91.80;;;;;;6093934;23;20232;-84
2021/07/18 09:02:54;;;;;;;11.68;5.97;;;20.50;92.10;;;;;;6095408;23;20280;-87
2021/07/18 09:05:24;;;;;;;8.60;6.50;;;20.60;91.70;;;;;;6093198;23;20227;-88
2021/07/18 09:07:53;;;;;;;8.07;6.07;;;20.60;91.20;;;;;;6091912;23;20263;-88
2021/07/18 09:10:22;;;;;;;9.90;6.00;;;20.90;90.60;;;;;;6090514;23;20204;-90
2021/07/18 09:13:04;;;;;;;7.47;6.38;;;21.00;90.90;;;;;;6094755;23;20180;-88
2021/07/18 09:15:44;;;;;;;8.20;6.15;;;21.10;90.50;;;;;;6093290;23;20208;-88
2021/07/18 09:18:14;;;;;;;9.27;5.82;;;21.30;89.40;;;;;;6093940;23;20177;-87
2021/07/18 09:20:45;;;;;;;10.68;6.45;;;21.60;90.10;;;;;;6096147;23;20177;-87
2021/07/18 09:23:15;;;;;;;9.93;6.85;;;21.80;86.50;;;;;;6073287;23;20255;-88
2021/07/18 09:25:50;;;;;;;8.38;6.43;;;21.70;86.20;;;;;;6097828;23;20244;-88
2021/07/18 09:28:20;;;;;;;7.93;6.63;;;21.50;90.00;;;;;;6096971;23;20644;-88
2021/07/18 09:30:47;;;;;;;10.93;7.57;;;21.20;88.50;;;;;;6098419;23;20176;-90
2021/07/18 09:33:25;;;;;;;11.95;7.53;;;21.00;89.30;;;;;;6098654;23;20212;-86
2021/07/18 09:36:10;;;;;;;14.20;7.60;;;20.80;90.50;;;;;;6098716;23;20204;-87
2021/07/18 09:38:37;;;;;;;9.13;7.18;;;20.60;91.10;;;;;;6099180;23;20239;-87
2021/07/18 09:41:04;;;;;;;7.95;7.13;;;20.40;92.40;;;;;;6097943;23;20208;-87
2021/07/18 09:43:32;;;;;;;9.75;8.10;;;20.40;92.70;;;;;;6100750;23;20224;-85
2021/07/18 09:46:01;;;;;;;32.90;28.90;;;20.30;92.40;;;;;;6075683;23;20196;-88
2021/07/18 09:48:40;;;;;;;19.30;14.93;;;20.10;92.70;;;;;;6099977;23;20215;-87
2021/07/18 09:51:19;;;;;;;14.13;9.52;;;20.20;92.90;;;;;;6102475;23;20165;-90
2021/07/18 09:54:07;;;;;;;12.57;8.90;;;20.00;93.10;;;;;;6101081;23;20231;-90
2021/07/18 09:56:34;;;;;;;17.88;15.85;;;20.10;93.60;;;;;;6078711;23;20208;-90
2021/07/18 09:59:01;;;;;;;16.60;14.55;;;20.10;94.20;;;;;;6100374;23;20283;-90
2021/07/18 10:01:28;;;;;;;12.50;9.50;;;20.20;94.20;;;;;;6101618;23;20737;-91
2021/07/18 10:04:06;;;;;;;11.50;8.93;;;20.30;94.10;;;;;;6075505;23;20232;-89
2021/07/18 10:06:35;;;;;;;13.57;10.23;;;20.30;94.10;;;;;;6100092;23;20227;-91
2021/07/18 10:09:09;;;;;;;26.80;24.10;;;20.30;94.00;;;;;;6096709;23;20215;-91
2021/07/18 10:11:39;;;;;;;31.95;28.52;;;20.50;93.90;;;;;;6098215;23;20620;-91
2021/07/18 10:14:06;;;;;;;24.88;21.05;;;20.50;93.80;;;;;;6072269;23;20218;-91
2021/07/18 10:16:33;;;;;;;50.92;45.72;;;20.40;94.30;;;;;;6098167;23;20176;-91
2021/07/18 10:19:00;;;;;;;34.78;31.17;;;20.40;94.20;;;;;;6097025;23;20267;-91
2021/07/18 10:21:29;;;;;;;74.75;67.03;;;20.50;94.10;;;;;;6048070;23;20180;-92
2021/07/18 10:26:43;;;;;;;54.08;48.40;;;20.50;94.40;;;;;;6111657;23;20494;-92
2021/07/18 10:29:11;;;;;;;33.60;29.20;;;20.60;94.10;;;;;;6098820;23;20500;-92
2021/07/18 10:31:45;;;;;;;20.23;16.05;;;20.70;93.70;;;;;;6098335;23;20187;-92
2021/07/18 10:34:14;;;;;;;88.10;78.40;;;20.70;93.60;;;;;;6096405;23;20208;-92
2021/07/18 10:36:42;;;;;;;25.75;21.05;;;20.70;93.70;;;;;;6098831;23;20173;-92
2021/07/18 10:39:30;;;;;;;17.02;13.45;;;20.80;93.70;;;;;;6097703;23;20724;-92
2021/07/18 10:41:58;;;;;;;17.92;13.85;;;20.80;93.70;;;;;;6099123;23;20200;-90
2021/07/18 10:44:25;;;;;;;17.25;12.50;;;20.80;93.10;;;;;;6097626;23;20236;-91
2021/07/18 10:46:54;;;;;;;14.90;13.30;;;20.70;93.20;;;;;;6098687;23;20223;-92
2021/07/18 10:49:59;;;;;;;16.52;11.77;;;20.60;93.70;;;;;;6123472;23;20258;-92
2021/07/18 10:52:32;;;;;;;15.60;12.95;;;20.60;94.00;;;;;;6159901;23;20210;-92
2021/07/18 10:56:04;;;;;;;15.40;12.93;;;20.40;94.00;;;;;;6106072;23;20250;-91
2021/07/18 11:02:05;;;;;;;15.55;13.10;;;20.40;93.90;;;;;;6161657;23;20757;-89
2021/07/18 11:04:44;;;;;;;16.15;13.98;;;20.40;94.10;;;;;;6158306;23;20289;-91
2021/07/18 11:07:29;;;;;;;20.33;14.43;;;20.30;94.30;;;;;;6160240;23;20179;-89
2021/07/18 11:10:20;;;;;;;17.27;14.38;;;20.30;94.40;;;;;;6158037;23;20237;-90
2021/07/18 11:15:56;;;;;;;17.98;14.95;;;20.00;95.50;;;;;;6136677;23;20172;-91
2021/07/18 11:18:35;;;;;;;20.48;15.23;;;20.20;96.20;;;;;;6131782;23;20604;-91
2021/07/18 11:21:02;;;;;;;19.38;15.55;;;20.30;96.70;;;;;;6157234;23;20250;-92
2021/07/18 11:26:18;;;;;;;22.10;15.57;;;20.10;96.70;;;;;;6150673;23;20478;-88
2021/07/18 11:29:06;;;;;;;17.60;15.45;;;20.20;97.20;;;;;;6160166;23;20257;-88
2021/07/18 11:31:44;;;;;;;17.80;15.43;;;20.40;96.80;;;;;;6161461;23;20175;-89
2021/07/18 11:37:53;;;;;;;22.55;16.50;;;20.70;96.40;;;;;;6162375;23;20143;-89
2021/07/18 11:40:20;;;;;;;17.08;14.68;;;21.00;96.10;;;;;;6140573;23;20495;-89
2021/07/18 11:42:48;;;;;;;16.90;15.10;;;21.10;95.70;;;;;;6161541;23;20506;-88
2021/07/18 11:45:32;;;;;;;20.75;15.95;;;21.20;95.20;;;;;;6160923;23;20179;-89
2021/07/18 11:48:12;;;;;;;18.67;15.20;;;21.50;94.20;;;;;;6159065;23;20234;-90
2021/07/18 11:54:22;;;;;;;17.27;14.52;;;22.20;93.30;;;;;;6159636;23;20547;-89
2021/07/18 11:57:23;;;;;;;18.27;15.43;;;22.50;93.20;;;;;;6132228;23;20234;-88
2021/07/18 11:59:52;;;;;;;18.75;15.43;;;22.90;91.50;;;;;;6155111;23;20211;-90
2021/07/18 12:06:22;;;;;;;16.83;14.68;;;23.30;85.00;;;;;;6160752;23;20491;-87
2021/07/18 12:08:51;;;;;;;15.80;14.15;;;23.60;87.40;;;;;;6162407;23;20703;-86
2021/07/18 12:11:23;;;;;;;18.02;15.07;;;23.80;86.60;;;;;;6162926;23;20663;-88
2021/07/18 12:13:53;;;;;;;16.88;15.07;;;23.60;85.80;;;;;;6162235;23;20167;-89
2021/07/18 12:16:20;;;;;;;22.30;15.18;;;23.10;90.10;;;;;;6162618;23;20191;-85
2021/07/18 12:18:48;;;;;;;16.90;15.10;;;22.70;90.40;;;;;;6167623;23;20180;-85
2021/07/18 12:21:17;;;;;;;17.48;15.73;;;22.60;91.40;;;;;;6170566;23;20159;-86
2021/07/18 12:27:32;;;;;;;17.30;14.57;;;22.70;90.00;;;;;;6172570;23;20155;-86
2021/07/18 12:30:01;;;;;;;16.10;14.50;;;23.20;89.30;;;;;;6140598;23;20205;-88
2021/07/18 12:32:31;;;;;;;18.48;13.90;;;23.40;85.60;;;;;;6158758;23;20186;-89
2021/07/18 12:35:13;;;;;;;16.20;14.57;;;23.70;83.40;;;;;;6160438;23;20183;-87
2021/07/18 12:41:03;;;;;;;16.25;14.60;;;24.30;80.70;;;;;;6157066;23;20241;-87
2021/07/18 12:43:33;;;;;;;16.20;14.48;;;24.40;77.10;;;;;;6156038;23;20702;-89
2021/07/18 12:46:00;;;;;;;15.15;13.00;;;24.50;77.70;;;;;;6156541;23;20167;-89
2021/07/18 12:48:27;;;;;;;14.85;13.25;;;24.20;73.50;;;;;;6129717;23;20234;-89
2021/07/18 12:50:54;;;;;;;17.00;14.73;;;24.20;72.70;;;;;;6129837;23;20183;-86
2021/07/18 12:53:22;;;;;;;17.08;14.00;;;24.30;75.60;;;;;;6154279;23;20620;-87
2021/07/18 12:55:51;;;;;;;15.77;13.38;;;24.60;75.80;;;;;;6153839;23;20217;-85
2021/07/18 12:58:24;;;;;;;15.50;13.80;;;24.80;70.30;;;;;;6159000;23;20286;-83
2021/07/18 13:01:09;;;;;;;17.80;14.00;;;24.70;65.20;;;;;;6155891;23;20167;-87
2021/07/18 13:03:38;;;;;;;15.15;13.48;;;24.60;67.60;;;;;;6156998;23;20171;-85
2021/07/18 13:07:00;;;;;;;15.48;13.88;;;24.60;68.30;;;;;;6161591;23;20179;-85
2021/07/18 13:13:07;;;;;;;16.38;14.10;;;24.30;72.70;;;;;;6169079;23;20142;-87
2021/07/18 13:15:36;;;;;;;15.35;13.52;;;23.70;70.90;;;;;;6137307;23;20223;-87
2021/07/18 13:18:06;;;;;;;15.20;13.70;;;23.50;78.00;;;;;;6163139;23;20178;-88
2021/07/18 13:21:09;;;;;;;16.33;13.85;;;23.40;77.20;;;;;;6158837;23;20206;-88
2021/07/18 13:23:45;;;;;;;14.57;13.07;;;23.70;78.10;;;;;;6157336;23;20203;-87
2021/07/18 13:26:31;;;;;;;15.30;13.77;;;23.90;76.80;;;;;;6158424;23;20168;-88
2021/07/18 13:29:12;;;;;;;15.02;13.02;;;24.10;77.60;;;;;;6157694;23;20229;-87
2021/07/18 13:31:40;;;;;;;17.08;13.48;;;24.20;75.40;;;;;;6157409;23;20167;-88
2021/07/18 13:34:12;;;;;;;15.02;13.57;;;24.10;76.20;;;;;;6157488;23;20251;-88
2021/07/18 13:36:40;;;;;;;15.40;13.80;;;24.10;77.70;;;;;;6159015;23;20251;-86
2021/07/18 13:39:09;;;;;;;16.55;13.73;;;24.00;74.20;;;;;;6159405;23;20286;-84
2021/07/18 13:41:37;;;;;;;15.18;13.60;;;24.00;69.30;;;;;;6163682;23;20257;-89
2021/07/18 13:44:05;;;;;;;15.07;13.57;;;24.20;67.90;;;;;;6135674;23;20226;-87
2021/07/18 13:46:33;;;;;;;14.07;12.25;;;24.60;65.20;;;;;;6161060;23;20532;-86
2021/07/18 13:49:00;;;;;;;13.60;12.07;;;24.90;59.60;;;;;;6158920;23;20214;-87
2021/07/18 13:51:33;;;;;;;14.07;12.50;;;25.10;55.10;;;;;;6160638;23;20231;-85
2021/07/18 13:54:00;;;;;;;14.90;12.23;;;25.00;53.90;;;;;;6163262;23;20207;-86
2021/07/18 13:56:28;;;;;;;13.57;12.23;;;24.80;54.20;;;;;;6163758;23;20206;-86
2021/07/18 13:58:56;;;;;;;15.32;11.30;;;24.60;55.30;;;;;;6163971;23;20243;-84
2021/07/18 14:01:23;;;;;;;13.57;11.18;;;24.80;55.90;;;;;;6138069;23;20195;-86
2021/07/18 14:03:51;;;;;;;13.40;12.20;;;25.10;52.60;;;;;;6165345;23;20554;-86
2021/07/18 14:06:18;;;;;;;15.48;13.55;;;25.10;50.50;;;;;;6163118;23;20197;-86
2021/07/18 14:08:47;;;;;;;11.82;10.43;;;25.20;49.80;;;;;;6158841;23;20274;-88
2021/07/18 14:11:14;;;;;;;12.23;11.05;;;25.30;50.30;;;;;;6156728;23;20263;-86
2021/07/18 14:13:41;;;;;;;11.65;9.75;;;25.40;48.30;;;;;;6156081;23;20278;-84
2021/07/18 14:16:08;;;;;;;11.48;10.38;;;25.50;50.20;;;;;;6156001;23;20195;-85
2021/07/18 14:18:41;;;;;;;13.32;11.98;;;25.60;49.00;;;;;;6155807;23;20274;-84
2021/07/18 14:21:08;;;;;;;11.32;10.13;;;25.60;50.30;;;;;;6156520;23;20207;-83
2021/07/18 14:23:36;;;;;;;12.15;10.88;;;25.40;46.30;;;;;;6149924;23;20203;-87
2021/07/18 14:26:04;;;;;;;11.70;10.60;;;25.20;50.30;;;;;;6155214;23;20174;-86
2021/07/18 14:28:34;;;;;;;13.95;11.00;;;24.90;53.60;;;;;;6151940;23;20384;-85
2021/07/18 14:31:01;;;;;;;12.77;10.07;;;24.50;51.70;;;;;;6158581;23;20166;-86
2021/07/18 14:33:29;;;;;;;11.75;10.60;;;24.30;52.80;;;;;;6154475;23;20262;-87
2021/07/18 14:35:56;;;;;;;12.15;10.93;;;24.40;53.70;;;;;;6157419;23;20258;-84
2021/07/18 14:38:23;;;;;;;17.73;16.02;;;24.50;52.80;;;;;;6156862;23;20278;-87
2021/07/18 14:40:50;;;;;;;11.10;10.00;;;24.70;51.70;;;;;;6134320;23;20214;-86
2021/07/18 14:43:19;;;;;;;12.93;11.73;;;25.00;49.90;;;;;;6159133;23;20183;-83
2021/07/18 14:45:46;;;;;;;13.88;12.50;;;25.50;46.90;;;;;;6159446;23;20227;-84
2021/07/18 14:48:13;;;;;;;18.73;16.83;;;25.80;45.30;;;;;;6157352;23;20278;-83
2021/07/18 14:50:41;;;;;;;21.92;19.67;;;25.60;45.00;;;;;;6160985;23;20282;-83
2021/07/18 14:53:09;;;;;;;14.27;12.82;;;25.20;46.10;;;;;;6160727;23;20234;-86
2021/07/18 14:55:38;;;;;;;9.55;8.23;;;24.90;47.20;;;;;;6155542;23;20203;-86
2021/07/18 14:58:06;;;;;;;10.80;9.15;;;24.70;48.10;;;;;;6156128;23;20202;-88
2021/07/18 15:00:39;;;;;;;12.02;10.85;;;24.40;50.20;;;;;;6159519;23;20745;-88
2021/07/18 15:03:06;;;;;;;11.75;10.57;;;24.30;51.80;;;;;;6160402;23;20155;-88
2021/07/18 15:05:33;;;;;;;26.33;23.85;;;24.30;53.90;;;;;;6159358;23;20230;-86
2021/07/18 15:08:01;;;;;;;10.88;8.90;;;24.30;57.90;;;;;;6159370;23;20263;-86
2021/07/18 15:10:29;;;;;;;13.45;12.05;;;24.30;51.10;;;;;;6158984;23;20246;-85
2021/07/18 15:12:56;;;;;;;12.68;9.23;;;24.30;54.10;;;;;;6159125;23;20742;-88
2021/07/18 15:15:24;;;;;;;9.35;7.95;;;24.30;56.00;;;;;;6159377;23;20705;-89
2021/07/18 15:17:52;;;;;;;8.77;7.88;;;24.30;50.90;;;;;;6157273;23;20289;-87
2021/07/18 15:20:20;;;;;;;10.60;8.15;;;24.20;50.20;;;;;;6128849;23;20663;-87
2021/07/18 15:22:48;;;;;;;10.88;9.23;;;24.30;52.70;;;;;;6131077;23;20694;-87
2021/07/18 15:25:15;;;;;;;10.95;8.98;;;24.40;54.50;;;;;;6157316;23;20286;-86
2021/07/18 15:27:43;;;;;;;10.27;7.50;;;24.40;55.70;;;;;;6133824;23;20202;-88
2021/07/18 15:30:11;;;;;;;8.60;7.63;;;24.40;55.00;;;;;;6156704;23;20297;-88
2021/07/18 15:32:39;;;;;;;9.27;8.38;;;24.40;56.20;;;;;;6157453;23;20259;-87
2021/07/18 15:35:09;;;;;;;8.68;7.78;;;24.40;55.50;;;;;;6129281;23;20266;-88
2021/07/18 15:37:36;;;;;;;8.55;7.75;;;24.60;54.70;;;;;;6158375;23;20281;-85
2021/07/18 15:40:04;;;;;;;9.23;7.70;;;24.80;53.40;;;;;;6159123;23;20237;-85
2021/07/18 15:42:31;;;;;;;9.93;9.02;;;24.80;49.60;;;;;;6161257;23;20214;-85
2021/07/18 15:44:58;;;;;;;8.23;7.53;;;24.70;53.20;;;;;;6160439;23;20225;-85
2021/07/18 15:47:25;;;;;;;8.27;7.35;;;24.50;51.60;;;;;;6161921;23;20231;-88
2021/07/18 15:49:53;;;;;;;8.68;6.95;;;24.30;52.00;;;;;;6159851;23;20227;-85
2021/07/18 15:52:21;;;;;;;8.07;7.38;;;24.10;53.80;;;;;;6156680;23;20558;-87
2021/07/18 15:54:55;;;;;;;9.15;8.18;;;23.90;57.10;;;;;;6158402;23;20218;-88
2021/07/18 15:57:22;;;;;;;8.85;7.75;;;23.70;61.20;;;;;;6134511;23;20187;-87
2021/07/18 15:59:49;;;;;;;12.48;7.93;;;23.30;62.90;;;;;;6168362;23;20234;-87
2021/07/18 16:02:26;;;;;;;9.73;7.97;;;23.10;65.30;;;;;;6165731;23;20507;-88
2021/07/18 16:04:54;;;;;;;15.80;10.73;;;22.90;69.10;;;;;;6165397;23;20255;-88
2021/07/18 16:07:23;;;;;;;11.68;8.57;;;22.90;65.00;;;;;;6167128;23;20579;-87
2021/07/18 16:09:50;;;;;;;7.28;6.57;;;22.90;70.70;;;;;;6164813;23;20298;-88
2021/07/18 16:12:17;;;;;;;10.80;7.93;;;22.80;60.40;;;;;;6163388;23;20172;-90
2021/07/18 16:14:44;;;;;;;8.82;6.90;;;22.70;64.30;;;;;;6127744;23;20203;-89
2021/07/18 16:17:14;;;;;;;8.85;7.50;;;22.70;63.50;;;;;;6156546;23;20669;-86
2021/07/18 16:19:41;;;;;;;8.23;7.40;;;22.60;58.30;;;;;;6159186;23;20203;-90
2021/07/18 16:22:10;;;;;;;10.32;6.88;;;22.50;61.00;;;;;;6156112;23;20257;-90
2021/07/18 16:24:39;;;;;;;9.18;7.38;;;22.60;67.10;;;;;;6155465;23;20751;-89
2021/07/18 16:27:07;;;;;;;9.18;8.23;;;22.60;58.30;;;;;;6155375;23;20262;-89
2021/07/18 16:29:37;;;;;;;10.48;7.55;;;22.70;65.70;;;;;;6153700;23;20203;-90
2021/07/18 16:32:05;;;;;;;7.65;6.85;;;22.70;64.10;;;;;;6156224;23;20195;-90
2021/07/18 16:34:32;;;;;;;7.97;7.20;;;22.70;66.20;;;;;;6127593;23;21105;-90
2021/07/18 16:37:01;;;;;;;8.93;8.02;;;22.70;66.10;;;;;;6127987;23;20179;-91
2021/07/18 16:39:29;;;;;;;7.63;6.28;;;22.60;65.80;;;;;;6152290;23;20209;-91
2021/07/18 16:41:58;;;;;;;7.20;6.20;;;22.50;63.20;;;;;;6156072;23;20163;-91
2021/07/18 16:44:25;;;;;;;11.00;7.60;;;22.50;63.60;;;;;;6154932;23;20258;-89
2021/07/18 16:46:53;;;;;;;9.20;7.60;;;22.40;67.60;;;;;;6155492;23;20179;-91
2021/07/18 16:49:20;;;;;;;9.23;7.18;;;22.30;69.40;;;;;;6155451;23;20286;-90
2021/07/18 16:51:48;;;;;;;9.52;8.52;;;22.10;72.70;;;;;;6153862;23;20175;-90
2021/07/18 16:54:16;;;;;;;9.55;8.65;;;22.00;80.60;;;;;;6126898;23;20286;-89
2021/07/18 16:56:43;;;;;;;12.20;9.52;;;21.90;86.30;;;;;;6154458;23;20179;-87
2021/07/18 16:59:13;;;;;;;10.43;9.43;;;21.80;90.90;;;;;;6153622;23;20311;-87
2021/07/18 17:01:40;;;;;;;15.38;9.55;;;21.80;92.20;;;;;;6158167;23;20527;-88
2021/07/18 17:04:07;;;;;;;13.18;9.68;;;21.80;92.50;;;;;;6132452;23;20528;-91
2021/07/18 17:06:35;;;;;;;10.45;9.30;;;21.80;92.90;;;;;;6128729;23;20199;-90
2021/07/18 17:09:03;;;;;;;10.98;9.50;;;21.90;93.10;;;;;;6127753;23;20286;-90
2021/07/18 17:11:30;;;;;;;11.07;9.38;;;21.90;92.50;;;;;;6154177;23;20254;-89
2021/07/18 17:13:57;;;;;;;10.93;9.82;;;21.90;93.10;;;;;;6152908;23;20211;-88
2021/07/18 17:16:26;;;;;;;10.15;9.25;;;21.90;93.10;;;;;;6154782;23;20690;-88
2021/07/18 17:18:54;;;;;;;11.30;10.10;;;21.90;93.10;;;;;;6153924;23;20223;-89
2021/07/18 17:21:21;;;;;;;10.20;9.15;;;21.90;93.10;;;;;;6153731;23;20254;-89
2021/07/18 17:23:49;;;;;;;10.35;9.25;;;21.90;93.30;;;;;;6154851;23;20199;-88
2021/07/18 17:26:16;;;;;;;10.68;9.55;;;21.90;93.70;;;;;;6154895;23;20547;-90
2021/07/18 17:28:43;;;;;;;9.80;8.80;;;22.00;93.60;;;;;;6153442;23;20278;-90
2021/07/18 17:31:11;;;;;;;10.63;9.50;;;22.00;93.50;;;;;;6154897;23;20286;-89
2021/07/18 17:33:40;;;;;;;10.75;9.65;;;22.10;93.40;;;;;;6154766;23;20210;-90
2021/07/18 17:36:07;;;;;;;11.60;10.18;;;22.20;93.50;;;;;;6153926;23;20172;-89
2021/07/18 17:38:34;;;;;;;10.93;9.68;;;22.20;93.60;;;;;;6153802;23;20282;-89
2021/07/18 17:41:01;;;;;;;12.38;10.15;;;22.20;93.20;;;;;;6155565;23;20256;-91
2021/07/18 17:43:38;;;;;;;10.48;9.32;;;22.30;93.20;;;;;;6156384;23;20210;-89
2021/07/18 17:46:05;;;;;;;13.18;9.95;;;22.30;93.20;;;;;;6156861;23;20168;-93
2021/07/18 17:48:32;;;;;;;13.07;9.70;;;22.30;93.20;;;;;;6156042;23;20214;-92
2021/07/18 17:51:19;;;;;;;10.57;9.43;;;22.30;93.20;;;;;;6158894;23;20278;-92
2021/07/18 17:53:48;;;;;;;14.10;12.73;;;22.10;93.20;;;;;;6156419;23;20237;-91
2021/07/18 17:56:14;;;;;;;46.25;41.45;;;21.90;93.70;;;;;;6156801;23;20246;-92
2021/07/18 17:58:41;;;;;;;14.02;11.02;;;21.80;94.10;;;;;;6156845;23;20234;-91
2021/07/18 18:01:09;;;;;;;11.57;10.38;;;21.70;94.30;;;;;;6159126;23;20222;-88
2021/07/18 18:03:36;;;;;;;10.50;9.40;;;21.70;94.80;;;;;;6161314;23;20203;-91
2021/07/18 18:06:11;;;;;;;11.02;9.45;;;21.70;94.70;;;;;;6156986;23;20510;-90
2021/07/18 18:08:44;;;;;;;9.77;8.77;;;21.70;94.60;;;;;;6160674;23;20197;-91
2021/07/18 18:11:16;;;;;;;9.98;8.95;;;21.60;94.70;;;;;;6156991;23;20197;-91
2021/07/18 18:13:43;;;;;;;11.30;8.85;;;21.60;94.80;;;;;;6158059;23;20203;-91
2021/07/18 18:16:16;;;;;;;9.95;8.93;;;21.50;95.10;;;;;;6157985;23;20171;-91
2021/07/18 18:18:44;;;;;;;9.95;8.65;;;21.40;95.40;;;;;;6155708;23;20590;-91
2021/07/18 18:21:11;;;;;;;12.18;9.63;;;21.30;95.50;;;;;;6156292;23;20462;-93
2021/07/18 18:23:38;;;;;;;10.55;9.43;;;21.20;95.60;;;;;;6154982;23;20234;-91
2021/07/18 18:26:08;;;;;;;11.68;9.18;;;21.20;96.10;;;;;;6156891;23;20199;-91
2021/07/18 18:28:35;;;;;;;14.38;9.23;;;21.20;96.60;;;;;;6156800;23;20281;-91
2021/07/18 18:31:04;;;;;;;11.45;9.43;;;21.10;96.50;;;;;;6158885;23;20658;-88
2021/07/18 18:33:39;;;;;;;10.82;9.73;;;21.00;97.10;;;;;;6158736;23;20578;-93
2021/07/18 18:36:06;;;;;;;10.80;9.65;;;20.90;97.50;;;;;;6156757;23;20202;-92
2021/07/18 18:38:33;;;;;;;10.82;9.48;;;20.80;98.00;;;;;;6157299;23;20210;-93
2021/07/18 18:41:01;;;;;;;13.70;9.60;;;20.70;98.20;;;;;;6156013;23;20486;-92
2021/07/18 18:46:55;;;;;;;10.70;8.73;;;20.50;98.20;;;;;;6123321;23;20494;-89
2021/07/18 18:49:23;;;;;;;11.05;9.48;;;20.50;98.20;;;;;;6157855;23;20242;-90
2021/07/18 18:51:50;;;;;;;11.35;10.15;;;20.60;98.20;;;;;;6158373;23;20230;-91
2021/07/18 18:54:16;;;;;;;10.85;9.50;;;20.50;98.20;;;;;;6158280;23;20222;-90
2021/07/18 18:56:44;;;;;;;11.77;10.63;;;20.50;98.50;;;;;;6159300;23;20172;-89
2021/07/18 18:59:13;;;;;;;12.55;10.95;;;20.50;98.80;;;;;;6155496;23;20679;-91
2021/07/18 19:01:41;;;;;;;12.38;10.55;;;20.50;98.90;;;;;;6156576;23;20187;-89
2021/07/18 19:04:08;;;;;;;11.93;10.65;;;20.50;99.00;;;;;;6155471;23;20632;-89
2021/07/18 19:06:36;;;;;;;10.43;9.32;;;20.50;99.20;;;;;;6156968;23;20545;-89
2021/07/18 19:09:04;;;;;;;14.07;9.52;;;20.30;98.90;;;;;;6128948;23;20204;-89
2021/07/18 19:11:32;;;;;;;15.80;10.30;;;20.20;98.80;;;;;;6155633;23;20666;-90
2021/07/18 19:13:58;;;;;;;41.15;31.50;;;20.20;99.30;;;;;;6156514;23;20226;-90
2021/07/18 19:16:27;;;;;;;19.40;14.88;;;20.20;99.50;;;;;;6153251;23;20186;-90
2021/07/18 19:18:54;;;;;;;11.80;9.70;;;20.20;99.50;;;;;;6154740;23;20295;-90
2021/07/18 19:21:22;;;;;;;18.20;11.57;;;20.20;99.10;;;;;;6154785;23;20250;-90
2021/07/18 19:23:49;;;;;;;13.80;10.60;;;20.20;99.50;;;;;;6152084;23;20231;-90
2021/07/18 19:26:17;;;;;;;11.52;10.07;;;20.10;99.30;;;;;;6154216;23;20296;-90
2021/07/18 19:28:44;;;;;;;13.52;11.07;;;20.00;99.50;;;;;;6151173;23;20211;-90
2021/07/18 19:31:11;;;;;;;12.68;10.00;;;20.00;99.90;;;;;;6151317;23;20290;-90
2021/07/18 19:33:39;;;;;;;11.77;9.93;;;19.80;99.80;;;;;;6151606;23;20227;-90
2021/07/18 19:36:08;;;;;;;14.52;10.13;;;19.80;99.90;;;;;;6152969;23;20175;-90
2021/07/18 19:38:36;;;;;;;13.35;10.90;;;19.70;99.90;;;;;;6150373;23;20285;-89
2021/07/18 19:41:06;;;;;;;10.52;9.43;;;19.80;99.90;;;;;;6148601;23;20191;-90
2021/07/18 19:43:35;;;;;;;14.00;10.23;;;19.80;99.90;;;;;;6132802;23;20263;-90
2021/07/18 19:46:04;;;;;;;10.85;9.15;;;19.80;99.90;;;;;;6146571;23;20201;-90
2021/07/18 19:48:31;;;;;;;14.02;10.70;;;19.70;99.80;;;;;;6146120;23;20234;-90
2021/07/18 19:50:59;;;;;;;11.43;10.23;;;19.60;99.90;;;;;;6146287;23;20522;-90
2021/07/18 19:53:26;;;;;;;11.50;10.48;;;19.50;99.90;;;;;;6147024;23;20175;-91
2021/07/18 19:55:55;;;;;;;10.63;9.32;;;19.60;99.90;;;;;;6153096;23;20167;-89
2021/07/18 19:58:23;;;;;;;13.27;10.27;;;19.60;99.90;;;;;;6153284;23;20258;-90
2021/07/18 20:00:50;;;;;;;12.35;9.40;;;19.60;99.90;;;;;;6154494;23;20182;-89
2021/07/18 20:03:17;;;;;;;10.07;9.10;;;19.60;99.90;;;;;;6152173;23;20654;-90
2021/07/18 20:05:45;;;;;;;11.57;8.73;;;19.60;99.90;;;;;;6153949;23;20270;-90
2021/07/18 20:08:13;;;;;;;10.52;8.90;;;19.60;99.90;;;;;;6153511;23;20198;-89
2021/07/18 20:10:40;;;;;;;11.05;8.95;;;19.60;99.90;;;;;;6155761;23;20242;-88
2021/07/18 20:13:08;;;;;;;9.98;8.98;;;19.50;99.90;;;;;;6157420;23;20171;-89
2021/07/18 20:15:36;;;;;;;10.15;9.07;;;19.40;99.90;;;;;;6155043;23;20199;-90
2021/07/18 20:18:03;;;;;;;9.80;8.80;;;19.30;99.90;;;;;;6152253;23;20647;-91
2021/07/18 20:20:31;;;;;;;11.35;9.00;;;19.30;99.90;;;;;;6154129;23;20671;-92
2021/07/18 20:22:58;;;;;;;19.17;17.10;;;19.30;99.90;;;;;;6153767;23;20703;-92
2021/07/18 20:25:29;;;;;;;111.50;97.45;;;19.30;99.90;;;;;;6152401;23;20285;-92
2021/07/18 20:27:56;;;;;;;163.38;145.02;;;19.30;99.90;;;;;;6153638;23;20167;-92
2021/07/18 20:30:24;;;;;;;114.53;102.05;;;19.30;99.90;;;;;;6153684;23;20241;-94
2021/07/18 20:32:52;;;;;;;58.95;52.63;;;19.30;99.90;;;;;;6153619;23;20183;-92
2021/07/18 20:35:19;;;;;;;49.00;43.85;;;19.20;99.90;;;;;;6154093;23;20207;-93
2021/07/18 20:37:46;;;;;;;19.40;17.33;;;19.20;99.90;;;;;;6154150;23;20250;-93
2021/07/18 20:40:14;;;;;;;20.52;17.15;;;19.20;99.90;;;;;;6153077;23;20358;-92
2021/07/18 20:42:47;;;;;;;21.98;18.08;;;19.20;99.90;;;;;;6154886;23;20254;-92
2021/07/18 20:45:14;;;;;;;14.30;12.35;;;19.20;99.90;;;;;;6153933;23;20302;-93
2021/07/18 20:47:42;;;;;;;16.92;13.55;;;19.20;99.90;;;;;;6154632;23;21071;-93
2021/07/18 20:50:14;;;;;;;23.13;20.00;;;19.20;99.90;;;;;;6155065;23;20210;-93
2021/07/18 20:52:43;;;;;;;29.20;26.08;;;19.10;99.90;;;;;;6156468;23;20175;-92
2021/07/18 20:55:10;;;;;;;90.03;80.45;;;19.10;99.90;;;;;;6154058;23;20203;-92
2021/07/18 20:57:37;;;;;;;101.22;90.30;;;19.00;99.90;;;;;;6155994;23;20202;-93
2021/07/18 21:00:10;;;;;;;44.58;39.70;;;19.00;99.90;;;;;;6154694;23;20294;-92
2021/07/18 21:02:39;;;;;;;41.70;37.25;;;19.00;99.90;;;;;;6155831;23;20197;-93
2021/07/18 21:05:08;;;;;;;20.90;18.63;;;19.10;99.90;;;;;;6154753;23;20539;-91
2021/07/18 21:07:35;;;;;;;19.13;17.13;;;19.00;99.90;;;;;;6155704;23;20179;-92
2021/07/18 21:10:04;;;;;;;17.48;15.68;;;19.00;99.90;;;;;;6153649;23;20289;-92
2021/07/18 21:12:31;;;;;;;13.25;11.93;;;19.00;99.90;;;;;;6155145;23;20415;-92
2021/07/18 21:14:58;;;;;;;14.73;12.93;;;18.90;99.90;;;;;;6152325;23;20685;-92
2021/07/18 21:17:26;;;;;;;14.15;12.63;;;18.90;99.90;;;;;;6151794;23;20234;-93
2021/07/18 21:19:54;;;;;;;14.82;11.80;;;18.90;99.90;;;;;;6149907;23;20289;-93
2021/07/18 21:22:20;;;;;;;11.70;10.40;;;18.80;99.90;;;;;;6155121;23;20237;-92
2021/07/18 21:24:47;;;;;;;13.30;10.68;;;18.90;99.90;;;;;;6159464;23;20494;-93
2021/07/18 21:27:14;;;;;;;10.07;9.07;;;18.90;99.90;;;;;;6155192;23;20643;-92